Time;durP1;ratioP1;P1;durP2;ratioP2;P2;SDS_P1;SDS_P2;PMS_P1;PMS_P2;Temp;Humidity;BMP_temperature;BMP_pressure;BME280_temperature;BME280_humidity;BME280_pressure;Samples;Min_cycle;Max_cycle;Signal;HPM_P1;HPM_P2
2023/12/03 00:01:07;;;;;;;60.37;28.27;;;1.90;99.20;;;;;;5056753;28;20021;-81
2023/12/03 00:03:33;;;;;;;63.60;27.00;;;1.90;99.30;;;;;;5055275;28;20029;-81
2023/12/03 00:05:59;;;;;;;59.17;28.37;;;1.90;99.30;;;;;;5055495;28;20014;-82
2023/12/03 00:08:24;;;;;;;57.37;26.37;;;1.90;99.50;;;;;;5056557;28;20074;-82
2023/12/03 00:10:51;;;;;;;62.03;29.50;;;1.80;99.50;;;;;;5022611;28;20049;-81
2023/12/03 00:13:17;;;;;;;59.13;27.67;;;1.90;99.70;;;;;;5055055;28;20083;-81
2023/12/03 00:15:42;;;;;;;55.23;24.93;;;1.90;99.70;;;;;;5038388;28;20032;-81
2023/12/03 00:18:08;;;;;;;57.27;26.47;;;1.90;99.70;;;;;;5055143;28;20025;-82
2023/12/03 00:20:34;;;;;;;65.07;27.43;;;1.90;99.80;;;;;;5038487;28;20063;-83
2023/12/03 00:23:00;;;;;;;57.33;26.53;;;1.90;99.90;;;;;;5056492;28;20017;-82
2023/12/03 00:25:26;;;;;;;56.30;25.20;;;1.80;99.90;;;;;;5054891;28;20477;-81
2023/12/03 00:27:52;;;;;;;51.50;24.07;;;1.80;99.90;;;;;;5055602;28;20044;-82
2023/12/03 00:30:18;;;;;;;56.53;24.23;;;1.80;99.90;;;;;;5056363;28;20052;-83
2023/12/03 00:32:44;;;;;;;55.33;25.03;;;1.90;99.90;;;;;;5056073;28;20056;-82
2023/12/03 00:35:11;;;;;;;49.90;23.57;;;1.90;99.90;;;;;;5056082;28;20063;-82
2023/12/03 00:37:37;;;;;;;55.33;25.90;;;1.80;99.90;;;;;;5037983;28;20013;-83
2023/12/03 00:40:03;;;;;;;56.37;24.47;;;1.90;99.90;;;;;;5054781;28;20141;-82
2023/12/03 00:42:28;;;;;;;60.07;25.30;;;1.80;99.90;;;;;;5054449;28;20013;-82
2023/12/03 00:44:54;;;;;;;62.83;26.87;;;1.80;99.90;;;;;;5054587;28;20021;-83
2023/12/03 00:47:19;;;;;;;67.27;27.67;;;1.90;99.90;;;;;;5054361;28;20390;-82
2023/12/03 00:49:45;;;;;;;65.50;25.17;;;1.90;99.90;;;;;;5055719;28;20017;-82
2023/12/03 00:52:11;;;;;;;58.03;26.00;;;1.90;99.90;;;;;;5037979;28;20017;-82
2023/12/03 00:54:36;;;;;;;61.57;26.07;;;1.90;99.90;;;;;;5037824;28;20021;-82
2023/12/03 00:57:02;;;;;;;70.70;27.30;;;1.90;99.90;;;;;;5037418;28;20099;-82
2023/12/03 00:59:28;;;;;;;65.73;25.00;;;1.90;99.90;;;;;;5055680;28;20025;-83
2023/12/03 01:01:53;;;;;;;61.53;24.63;;;1.90;99.90;;;;;;5037483;28;20024;-83
2023/12/03 01:04:19;;;;;;;64.83;25.53;;;1.90;99.90;;;;;;5055777;28;20488;-83
2023/12/03 01:06:44;;;;;;;65.63;25.10;;;1.90;99.90;;;;;;5055597;28;20029;-82
2023/12/03 01:09:10;;;;;;;71.47;28.23;;;1.90;99.90;;;;;;5037311;28;20021;-83
2023/12/03 01:11:42;;;;;;;70.37;26.67;;;1.90;99.90;;;;;;5055365;28;20096;-83
2023/12/03 01:14:08;;;;;;;59.33;25.17;;;1.90;99.90;;;;;;5055542;28;20138;-83
2023/12/03 01:16:33;;;;;;;61.40;25.03;;;1.90;99.90;;;;;;5055173;28;20521;-83
2023/12/03 01:18:59;;;;;;;58.53;22.27;;;1.90;99.90;;;;;;5055889;28;20412;-83
2023/12/03 01:21:25;;;;;;;67.57;24.70;;;2.00;99.90;;;;;;5055314;28;20106;-83
2023/12/03 01:23:50;;;;;;;63.80;24.97;;;2.00;99.90;;;;;;5055477;28;20029;-83
2023/12/03 01:26:16;;;;;;;57.33;23.90;;;2.00;99.90;;;;;;5055059;28;20049;-83
2023/12/03 01:28:42;;;;;;;68.87;25.10;;;1.90;99.90;;;;;;5036801;28;20519;-83
2023/12/03 01:31:07;;;;;;;58.47;22.27;;;2.00;99.90;;;;;;5055103;28;20088;-82
2023/12/03 01:33:33;;;;;;;59.67;22.07;;;1.90;99.90;;;;;;5055054;28;20107;-83
2023/12/03 01:35:59;;;;;;;69.43;24.47;;;1.90;99.90;;;;;;5055029;28;20068;-83
2023/12/03 01:38:24;;;;;;;63.20;24.47;;;1.90;99.90;;;;;;5036942;28;20017;-83
2023/12/03 01:40:53;;;;;;;61.47;21.50;;;2.00;99.90;;;;;;5054606;28;20282;-83
2023/12/03 01:43:19;;;;;;;52.83;21.17;;;2.00;99.90;;;;;;5054918;28;20017;-83
2023/12/03 01:45:45;;;;;;;52.17;21.33;;;2.00;99.90;;;;;;5054575;28;20024;-82
2023/12/03 01:48:12;;;;;;;50.00;20.73;;;2.00;99.90;;;;;;5036850;28;20495;-83
2023/12/03 01:50:39;;;;;;;57.40;23.30;;;2.00;99.90;;;;;;5055062;28;20108;-83
2023/12/03 01:53:05;;;;;;;57.27;23.07;;;2.00;99.90;;;;;;5053645;28;20035;-83
2023/12/03 01:55:31;;;;;;;62.90;24.03;;;2.00;99.90;;;;;;5054110;28;20048;-83
2023/12/03 01:57:57;;;;;;;63.70;25.70;;;2.00;99.90;;;;;;5054576;28;20083;-82
2023/12/03 02:00:23;;;;;;;64.07;23.33;;;2.00;99.90;;;;;;5036642;28;20075;-83
2023/12/03 02:02:48;;;;;;;69.30;24.80;;;2.10;99.90;;;;;;5054592;28;20021;-82
2023/12/03 02:05:14;;;;;;;58.87;23.27;;;2.20;99.90;;;;;;5054448;28;20480;-82
2023/12/03 02:07:40;;;;;;;60.13;23.13;;;2.10;99.90;;;;;;5054156;28;20040;-82
2023/12/03 02:10:06;;;;;;;55.50;21.20;;;2.10;99.90;;;;;;5036165;28;20089;-83
2023/12/03 02:12:32;;;;;;;55.23;21.30;;;2.10;99.90;;;;;;5053865;28;20036;-83
2023/12/03 02:14:58;;;;;;;59.47;23.27;;;2.10;99.90;;;;;;5054148;28;20357;-83
2023/12/03 02:17:24;;;;;;;70.47;26.63;;;2.00;99.90;;;;;;5036478;28;20028;-83
2023/12/03 02:19:49;;;;;;;62.77;25.10;;;2.10;99.90;;;;;;5054062;28;20107;-82
2023/12/03 02:22:16;;;;;;;59.37;24.67;;;2.20;99.90;;;;;;5054250;28;20067;-83
2023/12/03 02:24:41;;;;;;;63.33;22.77;;;2.20;99.90;;;;;;5035937;28;20025;-83
2023/12/03 02:27:07;;;;;;;54.90;21.67;;;2.20;99.90;;;;;;5052546;28;20106;-84
2023/12/03 02:29:32;;;;;;;57.70;24.07;;;2.20;99.90;;;;;;5035393;28;20111;-83
2023/12/03 02:31:58;;;;;;;62.57;25.37;;;2.20;99.90;;;;;;5053780;28;20036;-82
2023/12/03 02:34:24;;;;;;;63.23;23.77;;;2.30;99.90;;;;;;5053829;28;20519;-83
2023/12/03 02:36:49;;;;;;;64.03;24.03;;;2.30;99.90;;;;;;5053852;28;20033;-84
2023/12/03 02:39:15;;;;;;;68.57;25.83;;;2.30;99.90;;;;;;5053509;28;20074;-83
2023/12/03 02:41:41;;;;;;;68.70;26.23;;;2.30;99.90;;;;;;5035724;28;20066;-83
2023/12/03 02:44:06;;;;;;;60.60;23.77;;;2.30;99.90;;;;;;5053718;28;20128;-83
2023/12/03 02:46:32;;;;;;;63.40;26.57;;;2.50;99.90;;;;;;5036109;28;20121;-83
2023/12/03 02:48:58;;;;;;;64.40;25.80;;;2.40;99.90;;;;;;5053710;28;20031;-83
2023/12/03 02:51:23;;;;;;;65.17;24.50;;;2.40;99.90;;;;;;5053697;28;20108;-83
2023/12/03 02:53:49;;;;;;;54.47;21.67;;;2.40;99.90;;;;;;5053310;28;20053;-83
2023/12/03 02:56:15;;;;;;;57.17;23.03;;;2.40;99.90;;;;;;5053350;28;20033;-83
2023/12/03 02:58:41;;;;;;;66.50;26.00;;;2.60;99.90;;;;;;5053333;28;20025;-83
2023/12/03 03:01:07;;;;;;;65.40;24.80;;;2.40;99.90;;;;;;5053502;28;20017;-83
2023/12/03 03:03:33;;;;;;;63.50;25.00;;;2.50;99.90;;;;;;5052227;28;20025;-84
2023/12/03 03:05:59;;;;;;;62.40;24.90;;;2.60;99.90;;;;;;5035539;28;20024;-83
2023/12/03 03:08:24;;;;;;;59.53;23.90;;;2.50;99.90;;;;;;5035425;28;20018;-82
2023/12/03 03:10:50;;;;;;;62.23;24.27;;;2.60;99.90;;;;;;5035703;28;20021;-83
2023/12/03 03:13:15;;;;;;;52.10;23.47;;;2.60;99.90;;;;;;5053629;28;20480;-83
2023/12/03 03:15:41;;;;;;;64.07;25.43;;;2.60;99.90;;;;;;5053200;28;20021;-83
2023/12/03 03:18:07;;;;;;;53.00;23.63;;;2.60;99.90;;;;;;5053314;28;20025;-83
2023/12/03 03:20:33;;;;;;;57.50;25.93;;;2.60;99.90;;;;;;5053346;28;20413;-83
2023/12/03 03:22:58;;;;;;;56.73;24.70;;;2.70;99.90;;;;;;5051981;28;20021;-83
2023/12/03 03:25:24;;;;;;;57.67;25.50;;;2.60;99.90;;;;;;5052836;28;20147;-82
2023/12/03 03:27:50;;;;;;;56.80;25.97;;;2.70;99.90;;;;;;5050657;28;20045;-83
2023/12/03 03:30:15;;;;;;;53.57;26.57;;;2.60;99.90;;;;;;5053028;28;20025;-83
2023/12/03 03:32:41;;;;;;;56.37;25.43;;;2.70;99.90;;;;;;5051713;28;20032;-83
2023/12/03 03:35:07;;;;;;;50.30;25.70;;;2.70;99.90;;;;;;5052736;28;20535;-83
2023/12/03 03:37:33;;;;;;;58.87;26.03;;;2.70;99.90;;;;;;5052788;28;20024;-83
2023/12/03 03:39:58;;;;;;;53.23;26.17;;;2.80;99.90;;;;;;5051750;28;20493;-82
2023/12/03 03:42:24;;;;;;;52.97;26.47;;;2.70;99.90;;;;;;5052762;28;20088;-83
2023/12/03 03:44:50;;;;;;;51.30;25.87;;;2.70;99.90;;;;;;5052942;28;20489;-83
2023/12/03 03:47:16;;;;;;;60.83;29.43;;;2.80;99.90;;;;;;5052959;28;20048;-83
2023/12/03 03:49:42;;;;;;;57.23;26.90;;;2.80;99.90;;;;;;5052641;28;20104;-83
2023/12/03 03:52:07;;;;;;;54.53;26.87;;;2.80;99.90;;;;;;5035055;28;20529;-84
2023/12/03 03:54:33;;;;;;;52.57;27.10;;;2.80;99.90;;;;;;5053015;28;20021;-81
2023/12/03 03:56:59;;;;;;;50.67;27.70;;;2.80;99.90;;;;;;5052731;28;20029;-83
2023/12/03 03:59:25;;;;;;;57.50;29.60;;;2.80;99.90;;;;;;5053289;28;20029;-83
2023/12/03 04:01:51;;;;;;;49.17;25.57;;;2.80;99.90;;;;;;5052554;28;20474;-83
2023/12/03 04:04:17;;;;;;;50.03;25.30;;;2.80;99.90;;;;;;5052615;28;20109;-83
2023/12/03 04:06:44;;;;;;;49.40;25.40;;;2.80;99.90;;;;;;5051512;28;20017;-83
2023/12/03 04:09:10;;;;;;;47.13;24.93;;;2.80;99.90;;;;;;5051275;28;20021;-82
2023/12/03 04:11:40;;;;;;;47.93;25.73;;;2.80;99.90;;;;;;5052646;28;20500;-83
2023/12/03 04:14:07;;;;;;;47.83;25.13;;;2.80;99.90;;;;;;5052722;28;20154;-83
2023/12/03 04:16:36;;;;;;;47.53;24.47;;;2.80;99.90;;;;;;5052437;28;20037;-83
2023/12/03 04:19:02;;;;;;;48.63;25.33;;;2.80;99.90;;;;;;5051224;28;20435;-83
2023/12/03 04:21:29;;;;;;;50.03;25.20;;;2.80;99.90;;;;;;5052572;28;20040;-83
2023/12/03 04:23:56;;;;;;;45.80;25.23;;;2.80;99.90;;;;;;5050909;28;20384;-83
2023/12/03 04:26:22;;;;;;;42.03;24.60;;;2.90;99.90;;;;;;5052788;28;20025;-83
2023/12/03 04:28:48;;;;;;;47.17;24.47;;;2.90;99.90;;;;;;5031280;28;20524;-83
2023/12/03 04:31:25;;;;;;;46.87;24.70;;;2.90;99.90;;;;;;5032546;28;20022;-83
2023/12/03 04:33:52;;;;;;;44.53;25.10;;;2.80;99.90;;;;;;5031998;28;20025;-83
2023/12/03 04:36:19;;;;;;;46.30;25.03;;;2.80;99.90;;;;;;5036224;28;20029;-82
2023/12/03 04:38:45;;;;;;;41.70;22.80;;;2.80;99.90;;;;;;5036046;28;20037;-83
2023/12/03 04:41:11;;;;;;;40.47;21.07;;;2.80;99.90;;;;;;5034809;28;20561;-83
2023/12/03 04:43:36;;;;;;;42.67;23.83;;;2.80;99.90;;;;;;5034908;28;20087;-83
2023/12/03 04:46:03;;;;;;;38.87;21.97;;;2.80;99.90;;;;;;5051830;28;20025;-84
2023/12/03 04:48:29;;;;;;;42.70;21.77;;;2.80;99.90;;;;;;5042240;28;20018;-83
2023/12/03 04:50:55;;;;;;;40.10;21.33;;;2.90;99.90;;;;;;5031220;28;20507;-83
2023/12/03 04:53:20;;;;;;;36.67;21.33;;;2.80;99.90;;;;;;5016111;28;20018;-83
2023/12/03 04:55:46;;;;;;;42.73;23.20;;;2.80;99.90;;;;;;5014741;28;20034;-83
2023/12/03 04:58:11;;;;;;;37.00;20.60;;;2.90;99.90;;;;;;5016180;28;20025;-83
2023/12/03 05:00:37;;;;;;;37.47;20.57;;;2.90;99.90;;;;;;5031446;28;20036;-83
2023/12/03 05:03:03;;;;;;;38.07;22.50;;;3.00;99.90;;;;;;5031207;28;20052;-83
2023/12/03 05:05:28;;;;;;;41.80;21.50;;;2.90;99.90;;;;;;5015850;28;20411;-82
2023/12/03 05:07:54;;;;;;;37.50;20.73;;;2.80;99.90;;;;;;5014661;28;20025;-82
2023/12/03 05:10:19;;;;;;;36.73;19.67;;;2.90;99.90;;;;;;5031064;28;20022;-83
2023/12/03 05:12:45;;;;;;;36.73;19.17;;;2.90;99.90;;;;;;5014385;28;20019;-83
2023/12/03 05:15:11;;;;;;;38.83;20.37;;;2.90;99.90;;;;;;5015768;28;20497;-83
2023/12/03 05:17:36;;;;;;;36.30;19.27;;;2.90;99.90;;;;;;5030821;28;20029;-83
2023/12/03 05:20:02;;;;;;;35.07;19.03;;;2.80;99.90;;;;;;5014286;28;20033;-82
2023/12/03 05:22:28;;;;;;;37.17;19.23;;;2.80;99.90;;;;;;5015630;28;20018;-83
2023/12/03 05:24:54;;;;;;;32.63;18.97;;;2.80;99.90;;;;;;5014337;28;20076;-83
2023/12/03 05:27:19;;;;;;;39.07;18.83;;;2.80;99.90;;;;;;5030389;28;20099;-82
2023/12/03 05:29:45;;;;;;;39.70;21.23;;;2.80;99.90;;;;;;5015466;28;20050;-83
2023/12/03 05:32:11;;;;;;;36.37;18.93;;;2.80;99.90;;;;;;5015223;28;20026;-83
2023/12/03 05:34:36;;;;;;;36.00;18.17;;;2.80;99.90;;;;;;5030620;28;20029;-82
2023/12/03 05:37:03;;;;;;;38.13;19.33;;;2.80;99.90;;;;;;5015333;28;20037;-83
2023/12/03 05:39:29;;;;;;;36.70;18.57;;;2.80;99.90;;;;;;5030563;28;20029;-83
2023/12/03 05:41:55;;;;;;;34.93;18.97;;;2.80;99.90;;;;;;5030144;28;20478;-83
2023/12/03 05:44:21;;;;;;;36.27;19.93;;;2.70;99.90;;;;;;5030512;28;20076;-83
2023/12/03 05:46:46;;;;;;;42.53;20.43;;;2.70;99.90;;;;;;5012684;28;20033;-83
2023/12/03 05:49:12;;;;;;;37.10;19.70;;;2.60;99.90;;;;;;5013625;28;20100;-82
2023/12/03 05:51:43;;;;;;;40.13;20.27;;;2.50;99.90;;;;;;5015082;28;20021;-83
2023/12/03 05:54:08;;;;;;;38.97;19.80;;;2.50;99.90;;;;;;5013728;28;20022;-83
2023/12/03 05:56:34;;;;;;;44.67;21.17;;;2.40;99.90;;;;;;5014918;28;20029;-83
2023/12/03 05:59:00;;;;;;;41.77;21.03;;;2.40;99.90;;;;;;5030251;28;20038;-82
2023/12/03 06:01:25;;;;;;;39.33;21.27;;;2.30;99.90;;;;;;5029842;28;20125;-83
2023/12/03 06:03:51;;;;;;;35.80;19.40;;;2.30;99.90;;;;;;5014557;28;20104;-82
2023/12/03 06:06:17;;;;;;;41.83;20.67;;;2.20;99.90;;;;;;5013489;28;20048;-82
2023/12/03 06:08:44;;;;;;;38.90;20.70;;;2.20;99.90;;;;;;5013466;28;20467;-83
2023/12/03 06:11:09;;;;;;;38.83;20.97;;;2.10;99.90;;;;;;5014778;28;20049;-83
2023/12/03 06:13:35;;;;;;;37.20;19.13;;;2.00;99.90;;;;;;5013381;28;20470;-82
2023/12/03 06:16:01;;;;;;;43.60;20.40;;;2.00;99.90;;;;;;5014207;28;20137;-82
2023/12/03 06:18:27;;;;;;;40.17;21.07;;;1.90;99.90;;;;;;5030036;28;20025;-83
2023/12/03 06:20:53;;;;;;;39.73;19.73;;;1.90;99.90;;;;;;5014461;28;20033;-83
2023/12/03 06:23:18;;;;;;;40.23;19.47;;;1.90;99.90;;;;;;5014524;28;20385;-82
2023/12/03 06:25:44;;;;;;;40.03;19.97;;;1.80;99.90;;;;;;5013356;28;20064;-82
2023/12/03 06:28:10;;;;;;;37.77;18.13;;;1.70;99.90;;;;;;5012870;28;20404;-82
2023/12/03 06:30:36;;;;;;;35.13;16.87;;;1.70;99.90;;;;;;5012573;28;20549;-82
2023/12/03 06:33:02;;;;;;;37.83;19.40;;;1.60;99.90;;;;;;5013036;28;20045;-82
2023/12/03 06:35:27;;;;;;;40.30;18.53;;;1.60;99.90;;;;;;5014710;28;20073;-82
2023/12/03 06:37:53;;;;;;;42.80;20.50;;;1.60;99.90;;;;;;5014360;28;20112;-83
2023/12/03 06:40:19;;;;;;;44.27;21.50;;;1.50;99.90;;;;;;5012669;28;20489;-83
2023/12/03 06:42:44;;;;;;;46.13;21.77;;;1.50;99.90;;;;;;5028996;28;20018;-83
2023/12/03 06:45:12;;;;;;;44.73;22.13;;;1.40;99.90;;;;;;5012748;28;20037;-83
2023/12/03 06:47:37;;;;;;;39.40;20.13;;;1.40;99.90;;;;;;5014068;28;20029;-83
2023/12/03 06:50:04;;;;;;;47.17;22.83;;;1.40;99.90;;;;;;5013984;28;20474;-83
2023/12/03 06:52:29;;;;;;;46.23;21.67;;;1.30;99.90;;;;;;5012877;28;20022;-82
2023/12/03 06:54:55;;;;;;;44.93;21.03;;;1.30;99.90;;;;;;5012543;28;20022;-83
2023/12/03 06:57:20;;;;;;;45.77;21.23;;;1.40;99.90;;;;;;5011969;28;20520;-82
2023/12/03 06:59:46;;;;;;;49.87;22.47;;;1.30;99.90;;;;;;5012405;28;20018;-82
2023/12/03 07:02:12;;;;;;;47.40;22.57;;;1.20;99.90;;;;;;5022353;28;20488;-82
2023/12/03 07:04:38;;;;;;;44.23;21.40;;;1.20;99.90;;;;;;5031081;28;20029;-82
2023/12/03 07:07:04;;;;;;;45.87;22.50;;;1.20;99.90;;;;;;5023647;28;20105;-82
2023/12/03 07:09:31;;;;;;;46.87;22.77;;;1.10;99.90;;;;;;5012487;28;20367;-82
2023/12/03 07:11:57;;;;;;;51.27;22.47;;;1.20;99.90;;;;;;5028090;28;20049;-82
2023/12/03 07:14:23;;;;;;;44.47;22.80;;;1.00;99.90;;;;;;5012184;28;20041;-82
2023/12/03 07:16:49;;;;;;;44.13;19.77;;;1.00;99.90;;;;;;5011765;28;20034;-82
2023/12/03 07:19:14;;;;;;;45.63;21.43;;;1.00;99.90;;;;;;5013097;28;20018;-82
2023/12/03 07:21:40;;;;;;;56.07;25.20;;;0.90;99.90;;;;;;5013518;28;20033;-82
2023/12/03 07:24:07;;;;;;;46.93;20.97;;;0.90;99.90;;;;;;5028883;28;20022;-82
2023/12/03 07:26:33;;;;;;;44.67;22.67;;;0.80;99.90;;;;;;5012262;28;20393;-82
2023/12/03 07:28:59;;;;;;;45.17;21.77;;;0.80;99.90;;;;;;5011865;28;20092;-82
2023/12/03 07:31:24;;;;;;;53.47;24.43;;;0.80;99.90;;;;;;5013145;28;20022;-82
2023/12/03 07:33:50;;;;;;;52.63;24.13;;;0.80;99.90;;;;;;5013335;28;20026;-82
2023/12/03 07:36:16;;;;;;;49.47;23.20;;;0.70;99.90;;;;;;5013333;28;20053;-83
2023/12/03 07:38:41;;;;;;;50.50;23.90;;;0.70;99.90;;;;;;5013320;28;20600;-82
2023/12/03 07:41:11;;;;;;;55.17;24.77;;;0.70;99.90;;;;;;5013108;28;20101;-82
2023/12/03 07:43:36;;;;;;;48.83;21.47;;;0.70;99.90;;;;;;5019165;28;20473;-81
2023/12/03 07:46:02;;;;;;;49.90;21.57;;;0.60;99.90;;;;;;5048115;28;20032;-81
2023/12/03 07:48:28;;;;;;;46.97;22.77;;;0.70;99.90;;;;;;5048284;28;20026;-82
2023/12/03 07:50:53;;;;;;;48.87;22.60;;;0.70;99.90;;;;;;5033059;28;20151;-82
2023/12/03 07:53:19;;;;;;;44.30;19.93;;;0.60;99.90;;;;;;5032957;28;20488;-82
2023/12/03 07:55:45;;;;;;;52.97;22.97;;;0.70;99.90;;;;;;5048092;28;20390;-82
2023/12/03 07:58:10;;;;;;;57.90;23.63;;;0.70;99.90;;;;;;5048053;28;20470;-82
2023/12/03 08:00:39;;;;;;;48.87;20.77;;;0.70;99.90;;;;;;5047805;28;20014;-82
2023/12/03 08:03:05;;;;;;;46.20;21.20;;;0.70;99.90;;;;;;5048067;28;20036;-82
2023/12/03 08:05:31;;;;;;;41.53;19.27;;;0.70;99.90;;;;;;5032796;28;20117;-82
2023/12/03 08:07:57;;;;;;;43.67;20.80;;;0.60;99.90;;;;;;5032876;28;20028;-82
2023/12/03 08:10:22;;;;;;;48.30;20.63;;;0.70;99.90;;;;;;5051280;28;20389;-82
2023/12/03 08:12:48;;;;;;;46.20;19.33;;;0.70;99.90;;;;;;5051186;28;20079;-82
2023/12/03 08:15:13;;;;;;;44.60;19.93;;;0.70;99.90;;;;;;5035887;28;20030;-82
2023/12/03 08:17:39;;;;;;;41.97;18.00;;;0.70;99.90;;;;;;5051777;28;20112;-84
2023/12/03 08:20:05;;;;;;;45.20;20.33;;;0.70;99.90;;;;;;5036728;28;20021;-84
2023/12/03 08:22:34;;;;;;;43.93;18.80;;;0.80;99.90;;;;;;5036665;28;20022;-83
2023/12/03 08:24:59;;;;;;;46.50;19.10;;;0.80;99.90;;;;;;5036309;28;20026;-83
2023/12/03 08:27:25;;;;;;;43.83;18.97;;;0.90;99.90;;;;;;5052555;28;20507;-82
2023/12/03 08:29:50;;;;;;;41.67;19.27;;;0.90;99.90;;;;;;5056266;28;20036;-82
2023/12/03 08:32:16;;;;;;;40.23;19.40;;;1.00;99.90;;;;;;5056230;28;20112;-82
2023/12/03 08:34:42;;;;;;;37.97;17.10;;;1.00;99.90;;;;;;5054968;28;20059;-83
2023/12/03 08:37:07;;;;;;;39.27;17.67;;;1.00;99.90;;;;;;5038301;28;20029;-83
2023/12/03 08:39:33;;;;;;;42.60;18.60;;;1.10;99.90;;;;;;5054739;28;20021;-83
2023/12/03 08:41:58;;;;;;;42.17;17.93;;;1.00;99.90;;;;;;5045218;28;20088;-82
2023/12/03 08:44:25;;;;;;;42.40;19.17;;;1.20;99.90;;;;;;5038945;28;20025;-82
2023/12/03 08:46:51;;;;;;;41.67;18.37;;;1.20;99.90;;;;;;5035350;28;20186;-82
2023/12/03 08:49:17;;;;;;;38.37;17.73;;;1.20;99.90;;;;;;5037278;28;20121;-82
2023/12/03 08:51:43;;;;;;;41.70;19.00;;;1.30;99.90;;;;;;5035875;28;20033;-83
2023/12/03 08:54:08;;;;;;;40.33;18.93;;;1.40;99.90;;;;;;5035857;28;20036;-83
2023/12/03 08:56:34;;;;;;;47.47;21.10;;;1.40;99.90;;;;;;5035571;28;20108;-83
2023/12/03 08:59:00;;;;;;;43.83;19.87;;;1.50;99.90;;;;;;5040769;28;20147;-83
2023/12/03 09:01:26;;;;;;;43.03;19.90;;;1.50;99.90;;;;;;5035894;28;20025;-83
2023/12/03 09:03:51;;;;;;;46.07;19.67;;;1.50;99.90;;;;;;5036041;28;20017;-84
2023/12/03 09:06:17;;;;;;;43.37;20.13;;;1.60;99.90;;;;;;5018473;28;20031;-84
2023/12/03 09:08:43;;;;;;;40.17;17.63;;;1.70;99.90;;;;;;5036116;28;20026;-84
2023/12/03 09:11:08;;;;;;;42.37;19.27;;;1.70;99.90;;;;;;5036036;28;20075;-84
2023/12/03 09:13:34;;;;;;;38.23;18.30;;;1.80;99.90;;;;;;5035672;28;20496;-82
2023/12/03 09:16:00;;;;;;;43.47;18.17;;;1.90;99.90;;;;;;5035494;28;20029;-83
2023/12/03 09:18:25;;;;;;;36.40;16.03;;;2.00;99.90;;;;;;5035642;28;20048;-82
2023/12/03 09:20:51;;;;;;;38.73;17.53;;;2.10;99.90;;;;;;5016365;28;20030;-82
2023/12/03 09:23:17;;;;;;;38.13;17.90;;;2.20;99.90;;;;;;5035404;28;20032;-83
2023/12/03 09:25:43;;;;;;;33.77;16.70;;;2.30;99.90;;;;;;5035752;28;20037;-82
2023/12/03 09:28:10;;;;;;;36.93;16.97;;;2.50;99.90;;;;;;5043875;28;20415;-83
2023/12/03 09:30:36;;;;;;;35.77;17.50;;;2.60;99.90;;;;;;5055234;28;20025;-83
2023/12/03 09:33:01;;;;;;;31.70;15.57;;;2.90;99.90;;;;;;5053663;28;20021;-84
2023/12/03 09:35:30;;;;;;;34.67;16.03;;;3.10;99.90;;;;;;5054873;28;20078;-84
2023/12/03 09:37:56;;;;;;;36.70;16.40;;;3.30;99.90;;;;;;5053513;28;20055;-84
2023/12/03 09:40:23;;;;;;;35.47;16.90;;;3.50;99.90;;;;;;5053584;28;20021;-84
2023/12/03 09:42:50;;;;;;;31.10;15.40;;;3.90;99.90;;;;;;5053287;28;20112;-83
2023/12/03 09:45:19;;;;;;;28.80;14.70;;;4.10;99.90;;;;;;5054018;28;20025;-84
2023/12/03 09:47:52;;;;;;;30.43;15.27;;;4.50;99.90;;;;;;5054933;28;20116;-84
2023/12/03 09:50:19;;;;;;;33.08;15.75;;;4.90;99.90;;;;;;5053842;28;20021;-84
2023/12/03 09:52:50;;;;;;;27.80;13.90;;;5.30;99.90;;;;;;5053476;28;20028;-85
2023/12/03 09:55:18;;;;;;;28.13;14.00;;;5.80;99.90;;;;;;5054098;28;20094;-84
2023/12/03 09:57:47;;;;;;;28.70;14.17;;;6.20;99.90;;;;;;5054787;28;20036;-84
2023/12/03 10:00:14;;;;;;;26.40;14.73;;;6.60;99.90;;;;;;5053444;28;20167;-84
2023/12/03 10:02:40;;;;;;;27.73;14.07;;;6.90;99.90;;;;;;5054770;28;20032;-85
2023/12/03 10:05:06;;;;;;;25.50;13.90;;;7.20;99.90;;;;;;5053434;28;20366;-84
2023/12/03 10:07:32;;;;;;;27.15;14.68;;;7.50;99.90;;;;;;5054206;28;20029;-85
2023/12/03 10:09:59;;;;;;;23.63;13.43;;;7.90;98.80;;;;;;5036848;28;20025;-85
2023/12/03 10:12:41;;;;;;;28.65;13.27;;;8.20;98.90;;;;;;5054774;28;20025;-84
2023/12/03 10:15:09;;;;;;;24.85;14.85;;;8.30;97.50;;;;;;5054458;28;20021;-84
2023/12/03 10:17:35;;;;;;;27.05;14.77;;;8.20;93.20;;;;;;5053133;28;20029;-85
2023/12/03 10:20:21;;;;;;;25.80;14.38;;;7.90;92.60;;;;;;5052719;28;20087;-83
2023/12/03 10:22:51;;;;;;;23.57;14.03;;;7.70;91.60;;;;;;5036227;28;20025;-85
2023/12/03 10:25:31;;;;;;;26.70;14.83;;;7.40;90.20;;;;;;5054223;28;20049;-84
2023/12/03 10:27:58;;;;;;;29.40;16.07;;;7.10;90.20;;;;;;5054156;28;20052;-84
2023/12/03 10:30:24;;;;;;;26.57;14.37;;;6.90;89.80;;;;;;5052372;28;20108;-83
2023/12/03 10:32:50;;;;;;;29.50;15.90;;;6.70;90.10;;;;;;5062492;28;20021;-84
2023/12/03 10:35:17;;;;;;;27.70;15.27;;;6.70;89.20;;;;;;5056860;28;20499;-84
2023/12/03 10:37:43;;;;;;;27.13;14.23;;;6.70;89.90;;;;;;5052292;28;20020;-84
2023/12/03 10:40:10;;;;;;;27.87;14.83;;;6.70;88.30;;;;;;5037787;28;20280;-84
2023/12/03 10:42:39;;;;;;;27.43;14.43;;;6.90;89.30;;;;;;5052415;28;20477;-84
2023/12/03 10:45:09;;;;;;;28.80;14.80;;;7.20;90.10;;;;;;5052546;28;20029;-83
2023/12/03 10:47:36;;;;;;;27.70;14.20;;;7.50;88.40;;;;;;5052690;28;20033;-84
2023/12/03 10:50:05;;;;;;;28.00;13.90;;;7.80;87.60;;;;;;5052621;28;20021;-84
2023/12/03 10:52:32;;;;;;;26.95;14.25;;;8.10;87.00;;;;;;5053297;28;20013;-85
2023/12/03 10:54:57;;;;;;;24.27;13.75;;;8.40;87.80;;;;;;5053366;28;20025;-85
2023/12/03 10:57:28;;;;;;;22.88;13.23;;;8.60;85.70;;;;;;5052251;28;20044;-84
2023/12/03 11:00:05;;;;;;;22.80;12.60;;;8.70;84.10;;;;;;5053138;28;20032;-85
2023/12/03 11:02:45;;;;;;;22.33;12.98;;;8.70;82.40;;;;;;5054842;28;20028;-84
2023/12/03 11:05:23;;;;;;;24.67;12.32;;;8.70;80.90;;;;;;5051894;28;20064;-84
2023/12/03 11:07:49;;;;;;;21.93;12.23;;;8.60;79.30;;;;;;5051605;28;20123;-84
2023/12/03 11:10:15;;;;;;;25.53;13.57;;;8.40;75.80;;;;;;5053407;28;20040;-85
2023/12/03 11:12:43;;;;;;;19.97;11.50;;;8.10;76.50;;;;;;5035822;28;20031;-85
2023/12/03 11:15:09;;;;;;;23.10;12.37;;;7.80;77.00;;;;;;5039449;28;20051;-84
2023/12/03 11:17:40;;;;;;;24.57;11.97;;;7.60;76.70;;;;;;5054999;28;20029;-84
2023/12/03 11:20:14;;;;;;;21.47;11.53;;;7.40;77.50;;;;;;5055190;28;20100;-84
2023/12/03 11:23:00;;;;;;;27.65;12.63;;;7.20;76.20;;;;;;5059928;28;20024;-85
2023/12/03 11:25:34;;;;;;;25.17;12.70;;;6.90;75.90;;;;;;5057319;28;20029;-84
2023/12/03 11:28:00;;;;;;;24.65;12.63;;;6.70;76.60;;;;;;5051745;28;20409;-85
2023/12/03 11:30:40;;;;;;;22.03;11.70;;;6.50;76.10;;;;;;5053365;28;20017;-84
2023/12/03 11:33:07;;;;;;;23.37;12.50;;;6.40;77.20;;;;;;5053068;28;20028;-85
2023/12/03 11:35:33;;;;;;;23.20;11.57;;;6.30;75.90;;;;;;5051527;28;20485;-85
2023/12/03 11:38:00;;;;;;;23.57;11.20;;;6.30;76.40;;;;;;5051911;28;20053;-84
2023/12/03 11:40:34;;;;;;;23.93;11.83;;;6.30;76.80;;;;;;5052932;28;20063;-85
2023/12/03 11:42:59;;;;;;;17.50;9.82;;;6.40;76.40;;;;;;5051418;28;20021;-85
2023/12/03 11:45:27;;;;;;;26.37;12.60;;;6.50;76.10;;;;;;5052258;28;20096;-83
2023/12/03 11:48:07;;;;;;;22.10;11.37;;;6.70;76.50;;;;;;5051897;28;20036;-83
2023/12/03 11:50:41;;;;;;;23.03;11.67;;;6.90;76.70;;;;;;5051725;28;20112;-84
2023/12/03 11:53:08;;;;;;;22.17;10.90;;;7.00;76.20;;;;;;5053017;28;20029;-84
2023/12/03 11:55:35;;;;;;;23.40;11.97;;;6.90;75.50;;;;;;5051959;28;20544;-84
2023/12/03 11:58:05;;;;;;;22.40;10.67;;;7.00;76.10;;;;;;5051343;28;20043;-83
2023/12/03 12:00:32;;;;;;;21.50;11.27;;;7.20;76.80;;;;;;5051827;28;20028;-85
2023/12/03 12:02:59;;;;;;;18.33;9.93;;;7.40;76.60;;;;;;5052736;28;20416;-84
2023/12/03 12:05:25;;;;;;;22.03;11.57;;;7.70;76.90;;;;;;5053162;28;20031;-83
2023/12/03 12:08:02;;;;;;;21.10;11.27;;;7.90;75.20;;;;;;5051457;28;20024;-84
2023/12/03 12:10:32;;;;;;;20.47;11.03;;;8.00;73.90;;;;;;5051032;28;20017;-83
2023/12/03 12:13:04;;;;;;;22.63;11.07;;;7.90;72.70;;;;;;5051530;28;20491;-83
2023/12/03 12:15:30;;;;;;;22.70;11.03;;;7.80;71.10;;;;;;5051616;28;20025;-83
2023/12/03 12:17:56;;;;;;;21.50;11.67;;;7.60;71.50;;;;;;5034575;28;20021;-83
2023/12/03 12:20:22;;;;;;;22.23;11.80;;;7.40;70.40;;;;;;5052925;28;20112;-83
2023/12/03 12:22:50;;;;;;;22.73;12.33;;;7.30;69.50;;;;;;5034803;28;20029;-83
2023/12/03 12:25:16;;;;;;;22.33;12.03;;;7.10;70.00;;;;;;5051249;28;20028;-83
2023/12/03 13:47:37;;;;;;;23.87;12.23;;;5.30;77.80;;;;;;5086170;28;20077;-81
2023/12/03 13:50:03;;;;;;;27.10;12.47;;;5.20;77.80;;;;;;5076771;28;20496;-81
2023/12/03 13:52:29;;;;;;;22.73;10.97;;;5.20;78.00;;;;;;5095115;28;20028;-79